sensor_id;sensor_type;location;lat;lon;timestamp;P1;durP1;ratioP1;P2;durP2;ratioP2
59930;SDS011;45790;51.538;6.736;2022-12-05T00:00:08;21.38;;;12.00;;
59930;SDS011;45790;51.538;6.736;2022-12-05T00:02:34;26.05;;;12.25;;
59930;SDS011;45790;51.538;6.736;2022-12-05T00:04:59;21.65;;;12.88;;
59930;SDS011;45790;51.538;6.736;2022-12-05T00:07:25;19.52;;;11.40;;
59930;SDS011;45790;51.538;6.736;2022-12-05T00:09:50;20.42;;;12.30;;
59930;SDS011;45790;51.538;6.736;2022-12-05T00:12:15;23.40;;;13.07;;
59930;SDS011;45790;51.538;6.736;2022-12-05T00:14:41;21.45;;;12.55;;
59930;SDS011;45790;51.538;6.736;2022-12-05T00:17:06;19.48;;;11.73;;
59930;SDS011;45790;51.538;6.736;2022-12-05T00:19:31;18.80;;;11.88;;
59930;SDS011;45790;51.538;6.736;2022-12-05T00:21:57;18.00;;;11.73;;
59930;SDS011;45790;51.538;6.736;2022-12-05T00:24:22;19.52;;;11.95;;
59930;SDS011;45790;51.538;6.736;2022-12-05T00:26:47;19.55;;;12.48;;
59930;SDS011;45790;51.538;6.736;2022-12-05T00:29:13;22.25;;;12.52;;
59930;SDS011;45790;51.538;6.736;2022-12-05T00:31:38;22.05;;;12.38;;
59930;SDS011;45790;51.538;6.736;2022-12-05T00:34:07;19.92;;;12.05;;
59930;SDS011;45790;51.538;6.736;2022-12-05T00:36:33;20.60;;;11.63;;
59930;SDS011;45790;51.538;6.736;2022-12-05T00:39:00;20.85;;;12.18;;
59930;SDS011;45790;51.538;6.736;2022-12-05T00:41:27;21.77;;;12.15;;
59930;SDS011;45790;51.538;6.736;2022-12-05T00:43:53;20.55;;;12.23;;
59930;SDS011;45790;51.538;6.736;2022-12-05T00:46:21;23.00;;;12.25;;
59930;SDS011;45790;51.538;6.736;2022-12-05T00:48:47;22.50;;;12.73;;
59930;SDS011;45790;51.538;6.736;2022-12-05T00:51:14;22.23;;;13.55;;
59930;SDS011;45790;51.538;6.736;2022-12-05T00:53:52;19.52;;;11.70;;
59930;SDS011;45790;51.538;6.736;2022-12-05T00:56:22;19.73;;;12.30;;
59930;SDS011;45790;51.538;6.736;2022-12-05T01:01:15;20.05;;;12.38;;
59930;SDS011;45790;51.538;6.736;2022-12-05T01:03:56;18.92;;;10.98;;
59930;SDS011;45790;51.538;6.736;2022-12-05T01:06:23;21.83;;;12.50;;
59930;SDS011;45790;51.538;6.736;2022-12-05T01:08:48;20.52;;;12.27;;
59930;SDS011;45790;51.538;6.736;2022-12-05T01:11:15;19.13;;;12.43;;
59930;SDS011;45790;51.538;6.736;2022-12-05T01:13:41;18.75;;;11.82;;
59930;SDS011;45790;51.538;6.736;2022-12-05T01:16:12;21.83;;;12.25;;
59930;SDS011;45790;51.538;6.736;2022-12-05T01:18:48;23.60;;;13.02;;
59930;SDS011;45790;51.538;6.736;2022-12-05T01:21:13;20.15;;;12.65;;
59930;SDS011;45790;51.538;6.736;2022-12-05T01:23:39;21.23;;;12.63;;
59930;SDS011;45790;51.538;6.736;2022-12-05T01:26:08;21.35;;;11.65;;
59930;SDS011;45790;51.538;6.736;2022-12-05T01:28:35;20.45;;;12.73;;
59930;SDS011;45790;51.538;6.736;2022-12-05T01:33:49;21.40;;;12.77;;
59930;SDS011;45790;51.538;6.736;2022-12-05T01:36:14;20.45;;;12.70;;
59930;SDS011;45790;51.538;6.736;2022-12-05T01:38:41;19.90;;;12.45;;
59930;SDS011;45790;51.538;6.736;2022-12-05T01:41:08;21.25;;;12.60;;
59930;SDS011;45790;51.538;6.736;2022-12-05T01:43:52;21.92;;;12.50;;
59930;SDS011;45790;51.538;6.736;2022-12-05T01:46:17;20.25;;;12.68;;
59930;SDS011;45790;51.538;6.736;2022-12-05T01:48:43;21.02;;;12.38;;
59930;SDS011;45790;51.538;6.736;2022-12-05T01:51:08;22.60;;;13.27;;
59930;SDS011;45790;51.538;6.736;2022-12-05T01:53:34;20.83;;;12.77;;
59930;SDS011;45790;51.538;6.736;2022-12-05T01:55:59;22.20;;;12.80;;
59930;SDS011;45790;51.538;6.736;2022-12-05T01:58:24;22.33;;;12.98;;
59930;SDS011;45790;51.538;6.736;2022-12-05T02:00:52;22.10;;;13.02;;
59930;SDS011;45790;51.538;6.736;2022-12-05T02:03:18;20.95;;;12.68;;
59930;SDS011;45790;51.538;6.736;2022-12-05T02:05:45;20.30;;;12.15;;
59930;SDS011;45790;51.538;6.736;2022-12-05T02:08:12;20.00;;;12.20;;
59930;SDS011;45790;51.538;6.736;2022-12-05T02:10:44;19.88;;;12.23;;
59930;SDS011;45790;51.538;6.736;2022-12-05T02:18:36;21.33;;;12.05;;
59930;SDS011;45790;51.538;6.736;2022-12-05T02:23:50;22.33;;;12.82;;
59930;SDS011;45790;51.538;6.736;2022-12-05T02:26:45;21.63;;;11.90;;
59930;SDS011;45790;51.538;6.736;2022-12-05T02:31:55;18.83;;;11.55;;
59930;SDS011;45790;51.538;6.736;2022-12-05T02:34:44;22.05;;;12.32;;
59930;SDS011;45790;51.538;6.736;2022-12-05T02:37:16;20.58;;;13.15;;
59930;SDS011;45790;51.538;6.736;2022-12-05T02:39:59;21.23;;;13.27;;
59930;SDS011;45790;51.538;6.736;2022-12-05T02:42:30;20.88;;;12.65;;
59930;SDS011;45790;51.538;6.736;2022-12-05T02:45:00;21.92;;;12.13;;
59930;SDS011;45790;51.538;6.736;2022-12-05T02:47:31;21.95;;;12.40;;
59930;SDS011;45790;51.538;6.736;2022-12-05T02:49:57;19.92;;;11.73;;
59930;SDS011;45790;51.538;6.736;2022-12-05T02:52:23;19.80;;;12.02;;
59930;SDS011;45790;51.538;6.736;2022-12-05T02:54:49;21.60;;;12.25;;
59930;SDS011;45790;51.538;6.736;2022-12-05T02:57:15;19.00;;;11.18;;
59930;SDS011;45790;51.538;6.736;2022-12-05T02:59:41;20.33;;;12.10;;
59930;SDS011;45790;51.538;6.736;2022-12-05T03:02:07;17.17;;;11.55;;
59930;SDS011;45790;51.538;6.736;2022-12-05T03:04:33;20.30;;;12.02;;
59930;SDS011;45790;51.538;6.736;2022-12-05T03:07:01;18.52;;;11.77;;
59930;SDS011;45790;51.538;6.736;2022-12-05T03:12:04;20.98;;;12.77;;
59930;SDS011;45790;51.538;6.736;2022-12-05T03:14:35;21.55;;;11.55;;
59930;SDS011;45790;51.538;6.736;2022-12-05T03:17:11;19.50;;;12.27;;
59930;SDS011;45790;51.538;6.736;2022-12-05T03:19:47;23.10;;;11.98;;
59930;SDS011;45790;51.538;6.736;2022-12-05T03:22:18;20.52;;;12.43;;
59930;SDS011;45790;51.538;6.736;2022-12-05T03:24:48;18.88;;;11.55;;
59930;SDS011;45790;51.538;6.736;2022-12-05T03:27:16;19.15;;;11.73;;
59930;SDS011;45790;51.538;6.736;2022-12-05T03:29:54;21.02;;;12.20;;
59930;SDS011;45790;51.538;6.736;2022-12-05T03:37:37;20.27;;;11.95;;
59930;SDS011;45790;51.538;6.736;2022-12-05T03:48:13;18.65;;;11.48;;
59930;SDS011;45790;51.538;6.736;2022-12-05T03:53:18;20.70;;;12.13;;
59930;SDS011;45790;51.538;6.736;2022-12-05T03:56:26;21.23;;;11.68;;
59930;SDS011;45790;51.538;6.736;2022-12-05T03:58:58;19.88;;;11.07;;
59930;SDS011;45790;51.538;6.736;2022-12-05T04:01:27;20.65;;;11.50;;
59930;SDS011;45790;51.538;6.736;2022-12-05T04:03:55;19.13;;;11.60;;
59930;SDS011;45790;51.538;6.736;2022-12-05T04:06:26;20.83;;;11.50;;
59930;SDS011;45790;51.538;6.736;2022-12-05T04:08:57;19.27;;;11.60;;
59930;SDS011;45790;51.538;6.736;2022-12-05T04:11:25;18.95;;;11.15;;
59930;SDS011;45790;51.538;6.736;2022-12-05T04:13:53;19.83;;;12.25;;
59930;SDS011;45790;51.538;6.736;2022-12-05T04:16:24;18.50;;;10.85;;
59930;SDS011;45790;51.538;6.736;2022-12-05T04:19:18;17.60;;;10.90;;
59930;SDS011;45790;51.538;6.736;2022-12-05T04:21:49;19.67;;;10.45;;
59930;SDS011;45790;51.538;6.736;2022-12-05T04:24:18;21.35;;;11.70;;
59930;SDS011;45790;51.538;6.736;2022-12-05T04:27:09;18.17;;;11.20;;
59930;SDS011;45790;51.538;6.736;2022-12-05T04:30:00;18.75;;;11.18;;
59930;SDS011;45790;51.538;6.736;2022-12-05T04:32:34;19.33;;;11.05;;
59930;SDS011;45790;51.538;6.736;2022-12-05T04:35:10;18.08;;;10.80;;
59930;SDS011;45790;51.538;6.736;2022-12-05T04:37:40;18.30;;;11.18;;
59930;SDS011;45790;51.538;6.736;2022-12-05T04:40:09;17.35;;;10.80;;
59930;SDS011;45790;51.538;6.736;2022-12-05T04:42:42;17.98;;;10.98;;
59930;SDS011;45790;51.538;6.736;2022-12-05T04:45:09;20.15;;;10.93;;
59930;SDS011;45790;51.538;6.736;2022-12-05T04:47:38;18.08;;;10.48;;
59930;SDS011;45790;51.538;6.736;2022-12-05T04:50:06;17.67;;;10.52;;
59930;SDS011;45790;51.538;6.736;2022-12-05T04:52:32;15.93;;;10.43;;
59930;SDS011;45790;51.538;6.736;2022-12-05T04:55:32;17.35;;;10.23;;
59930;SDS011;45790;51.538;6.736;2022-12-05T04:58:12;17.88;;;10.57;;
59930;SDS011;45790;51.538;6.736;2022-12-05T05:01:18;16.75;;;9.75;;
59930;SDS011;45790;51.538;6.736;2022-12-05T05:03:41;18.38;;;10.15;;
59930;SDS011;45790;51.538;6.736;2022-12-05T05:06:09;16.23;;;10.23;;
59930;SDS011;45790;51.538;6.736;2022-12-05T05:08:35;18.13;;;10.55;;
59930;SDS011;45790;51.538;6.736;2022-12-05T05:11:03;16.92;;;10.90;;
59930;SDS011;45790;51.538;6.736;2022-12-05T05:13:34;17.08;;;10.73;;
59930;SDS011;45790;51.538;6.736;2022-12-05T05:15:59;18.05;;;10.93;;
59930;SDS011;45790;51.538;6.736;2022-12-05T05:18:25;16.35;;;9.90;;
59930;SDS011;45790;51.538;6.736;2022-12-05T05:20:50;19.20;;;10.85;;
59930;SDS011;45790;51.538;6.736;2022-12-05T05:23:15;19.52;;;11.18;;
59930;SDS011;45790;51.538;6.736;2022-12-05T05:25:41;16.75;;;10.13;;
59930;SDS011;45790;51.538;6.736;2022-12-05T05:28:06;16.27;;;9.55;;
59930;SDS011;45790;51.538;6.736;2022-12-05T05:30:31;17.65;;;10.38;;
59930;SDS011;45790;51.538;6.736;2022-12-05T05:32:57;16.25;;;9.80;;
59930;SDS011;45790;51.538;6.736;2022-12-05T05:35:23;16.10;;;10.77;;
59930;SDS011;45790;51.538;6.736;2022-12-05T05:37:48;15.43;;;9.85;;
59930;SDS011;45790;51.538;6.736;2022-12-05T05:40:14;18.60;;;10.32;;
59930;SDS011;45790;51.538;6.736;2022-12-05T05:42:43;16.58;;;9.50;;
59930;SDS011;45790;51.538;6.736;2022-12-05T05:45:10;17.45;;;10.23;;
59930;SDS011;45790;51.538;6.736;2022-12-05T05:47:36;15.98;;;9.85;;
59930;SDS011;45790;51.538;6.736;2022-12-05T05:50:02;16.35;;;9.60;;
59930;SDS011;45790;51.538;6.736;2022-12-05T05:52:28;17.27;;;10.40;;
59930;SDS011;45790;51.538;6.736;2022-12-05T05:54:56;16.52;;;10.18;;
59930;SDS011;45790;51.538;6.736;2022-12-05T05:57:22;16.58;;;9.43;;
59930;SDS011;45790;51.538;6.736;2022-12-05T05:59:47;14.50;;;9.13;;
59930;SDS011;45790;51.538;6.736;2022-12-05T06:02:12;14.15;;;9.18;;
59930;SDS011;45790;51.538;6.736;2022-12-05T06:04:37;15.10;;;9.45;;
59930;SDS011;45790;51.538;6.736;2022-12-05T06:07:03;13.57;;;8.95;;
59930;SDS011;45790;51.538;6.736;2022-12-05T06:09:28;17.40;;;10.38;;
59930;SDS011;45790;51.538;6.736;2022-12-05T06:11:53;15.23;;;10.20;;
59930;SDS011;45790;51.538;6.736;2022-12-05T06:14:19;18.25;;;9.90;;
59930;SDS011;45790;51.538;6.736;2022-12-05T06:16:44;14.65;;;9.50;;
59930;SDS011;45790;51.538;6.736;2022-12-05T06:19:09;17.38;;;10.07;;
59930;SDS011;45790;51.538;6.736;2022-12-05T06:21:35;15.50;;;9.55;;
59930;SDS011;45790;51.538;6.736;2022-12-05T06:24:00;17.88;;;10.50;;
59930;SDS011;45790;51.538;6.736;2022-12-05T06:26:25;18.35;;;10.23;;
59930;SDS011;45790;51.538;6.736;2022-12-05T06:28:50;15.90;;;9.57;;
59930;SDS011;45790;51.538;6.736;2022-12-05T06:31:17;14.93;;;9.23;;
59930;SDS011;45790;51.538;6.736;2022-12-05T06:33:44;17.30;;;9.52;;
59930;SDS011;45790;51.538;6.736;2022-12-05T06:36:14;16.02;;;9.57;;
59930;SDS011;45790;51.538;6.736;2022-12-05T06:38:40;15.90;;;9.30;;
59930;SDS011;45790;51.538;6.736;2022-12-05T06:41:07;16.42;;;9.68;;
59930;SDS011;45790;51.538;6.736;2022-12-05T06:43:34;17.05;;;9.88;;
59930;SDS011;45790;51.538;6.736;2022-12-05T06:46:03;16.83;;;9.63;;
59930;SDS011;45790;51.538;6.736;2022-12-05T06:48:29;17.35;;;9.70;;
59930;SDS011;45790;51.538;6.736;2022-12-05T06:50:55;16.05;;;9.10;;
59930;SDS011;45790;51.538;6.736;2022-12-05T06:53:20;15.52;;;9.48;;
59930;SDS011;45790;51.538;6.736;2022-12-05T06:55:56;16.13;;;9.43;;
59930;SDS011;45790;51.538;6.736;2022-12-05T06:58:22;16.42;;;9.88;;
59930;SDS011;45790;51.538;6.736;2022-12-05T07:00:54;15.18;;;9.07;;
59930;SDS011;45790;51.538;6.736;2022-12-05T07:03:41;15.00;;;9.57;;
59930;SDS011;45790;51.538;6.736;2022-12-05T07:06:11;17.00;;;9.68;;
59930;SDS011;45790;51.538;6.736;2022-12-05T07:11:58;15.57;;;8.70;;
59930;SDS011;45790;51.538;6.736;2022-12-05T07:14:23;13.30;;;8.85;;
59930;SDS011;45790;51.538;6.736;2022-12-05T07:16:49;14.93;;;9.15;;
59930;SDS011;45790;51.538;6.736;2022-12-05T07:19:15;13.95;;;8.50;;
59930;SDS011;45790;51.538;6.736;2022-12-05T07:21:40;14.65;;;8.98;;
59930;SDS011;45790;51.538;6.736;2022-12-05T07:24:06;13.65;;;8.40;;
59930;SDS011;45790;51.538;6.736;2022-12-05T07:26:31;13.55;;;8.48;;
59930;SDS011;45790;51.538;6.736;2022-12-05T07:28:56;14.13;;;9.02;;
59930;SDS011;45790;51.538;6.736;2022-12-05T07:31:22;14.43;;;8.50;;
59930;SDS011;45790;51.538;6.736;2022-12-05T07:33:48;14.05;;;8.70;;
59930;SDS011;45790;51.538;6.736;2022-12-05T07:36:15;13.43;;;8.52;;
59930;SDS011;45790;51.538;6.736;2022-12-05T07:38:46;14.52;;;8.80;;
59930;SDS011;45790;51.538;6.736;2022-12-05T07:41:33;14.50;;;8.73;;
59930;SDS011;45790;51.538;6.736;2022-12-05T07:49:09;13.73;;;8.68;;
59930;SDS011;45790;51.538;6.736;2022-12-05T07:51:34;14.13;;;8.68;;
59930;SDS011;45790;51.538;6.736;2022-12-05T07:54:00;12.35;;;8.60;;
59930;SDS011;45790;51.538;6.736;2022-12-05T07:56:25;12.75;;;8.30;;
59930;SDS011;45790;51.538;6.736;2022-12-05T07:58:51;13.38;;;8.38;;
59930;SDS011;45790;51.538;6.736;2022-12-05T08:01:23;13.20;;;8.07;;
59930;SDS011;45790;51.538;6.736;2022-12-05T08:03:54;15.85;;;9.02;;
59930;SDS011;45790;51.538;6.736;2022-12-05T08:06:25;15.90;;;8.88;;
59930;SDS011;45790;51.538;6.736;2022-12-05T08:08:52;11.80;;;7.95;;
59930;SDS011;45790;51.538;6.736;2022-12-05T08:11:19;12.98;;;8.43;;
59930;SDS011;45790;51.538;6.736;2022-12-05T08:13:46;11.65;;;8.05;;
59930;SDS011;45790;51.538;6.736;2022-12-05T08:16:16;13.40;;;8.18;;
59930;SDS011;45790;51.538;6.736;2022-12-05T08:18:43;13.23;;;8.52;;
59930;SDS011;45790;51.538;6.736;2022-12-05T08:21:12;13.57;;;8.50;;
59930;SDS011;45790;51.538;6.736;2022-12-05T08:23:42;12.10;;;8.07;;
59930;SDS011;45790;51.538;6.736;2022-12-05T08:26:09;13.73;;;8.07;;
59930;SDS011;45790;51.538;6.736;2022-12-05T08:28:39;13.32;;;8.70;;
59930;SDS011;45790;51.538;6.736;2022-12-05T08:31:07;13.27;;;8.40;;
59930;SDS011;45790;51.538;6.736;2022-12-05T08:33:34;14.40;;;8.35;;
59930;SDS011;45790;51.538;6.736;2022-12-05T08:36:00;13.15;;;8.15;;
59930;SDS011;45790;51.538;6.736;2022-12-05T08:38:27;12.95;;;8.40;;
59930;SDS011;45790;51.538;6.736;2022-12-05T08:40:52;14.57;;;8.50;;
59930;SDS011;45790;51.538;6.736;2022-12-05T08:43:18;12.68;;;7.80;;
59930;SDS011;45790;51.538;6.736;2022-12-05T08:45:50;13.48;;;8.55;;
59930;SDS011;45790;51.538;6.736;2022-12-05T08:48:18;13.65;;;8.70;;
59930;SDS011;45790;51.538;6.736;2022-12-05T08:50:44;12.00;;;8.40;;
59930;SDS011;45790;51.538;6.736;2022-12-05T08:53:10;12.73;;;7.97;;
59930;SDS011;45790;51.538;6.736;2022-12-05T08:55:35;12.43;;;7.80;;
59930;SDS011;45790;51.538;6.736;2022-12-05T08:58:01;11.73;;;7.78;;
59930;SDS011;45790;51.538;6.736;2022-12-05T09:00:27;13.40;;;8.38;;
59930;SDS011;45790;51.538;6.736;2022-12-05T09:02:52;12.25;;;7.97;;
59930;SDS011;45790;51.538;6.736;2022-12-05T09:05:17;11.68;;;7.82;;
59930;SDS011;45790;51.538;6.736;2022-12-05T09:07:43;12.50;;;8.07;;
59930;SDS011;45790;51.538;6.736;2022-12-05T09:10:08;12.30;;;8.25;;
59930;SDS011;45790;51.538;6.736;2022-12-05T09:12:35;12.80;;;7.63;;
59930;SDS011;45790;51.538;6.736;2022-12-05T09:15:00;12.32;;;7.53;;
59930;SDS011;45790;51.538;6.736;2022-12-05T09:17:26;12.68;;;7.80;;
59930;SDS011;45790;51.538;6.736;2022-12-05T09:19:51;12.57;;;7.95;;
59930;SDS011;45790;51.538;6.736;2022-12-05T09:22:17;10.32;;;7.25;;
59930;SDS011;45790;51.538;6.736;2022-12-05T09:24:43;11.43;;;7.60;;
59930;SDS011;45790;51.538;6.736;2022-12-05T09:27:09;11.57;;;6.93;;
59930;SDS011;45790;51.538;6.736;2022-12-05T09:29:34;11.30;;;7.70;;
59930;SDS011;45790;51.538;6.736;2022-12-05T09:32:00;11.85;;;7.32;;
59930;SDS011;45790;51.538;6.736;2022-12-05T09:34:25;12.27;;;7.45;;
59930;SDS011;45790;51.538;6.736;2022-12-05T09:36:52;11.90;;;7.57;;
59930;SDS011;45790;51.538;6.736;2022-12-05T09:39:17;11.63;;;7.35;;
59930;SDS011;45790;51.538;6.736;2022-12-05T09:41:47;11.40;;;7.15;;
59930;SDS011;45790;51.538;6.736;2022-12-05T09:52:44;11.30;;;7.07;;
59930;SDS011;45790;51.538;6.736;2022-12-05T09:55:23;10.90;;;7.32;;
59930;SDS011;45790;51.538;6.736;2022-12-05T09:57:56;11.27;;;7.05;;
59930;SDS011;45790;51.538;6.736;2022-12-05T10:00:22;11.65;;;6.88;;
59930;SDS011;45790;51.538;6.736;2022-12-05T10:02:51;10.48;;;7.28;;
59930;SDS011;45790;51.538;6.736;2022-12-05T10:05:45;10.50;;;7.30;;
59930;SDS011;45790;51.538;6.736;2022-12-05T10:08:25;10.98;;;6.97;;
59930;SDS011;45790;51.538;6.736;2022-12-05T10:14:20;11.30;;;7.13;;
59930;SDS011;45790;51.538;6.736;2022-12-05T10:16:51;11.40;;;7.38;;
59930;SDS011;45790;51.538;6.736;2022-12-05T10:19:26;10.48;;;7.45;;
59930;SDS011;45790;51.538;6.736;2022-12-05T10:21:56;12.45;;;8.07;;
59930;SDS011;45790;51.538;6.736;2022-12-05T10:24:31;12.38;;;7.70;;
59930;SDS011;45790;51.538;6.736;2022-12-05T10:26:59;11.25;;;7.15;;
59930;SDS011;45790;51.538;6.736;2022-12-05T10:32:12;12.48;;;7.32;;
59930;SDS011;45790;51.538;6.736;2022-12-05T10:34:42;11.05;;;7.18;;
59930;SDS011;45790;51.538;6.736;2022-12-05T10:37:14;10.05;;;6.80;;
59930;SDS011;45790;51.538;6.736;2022-12-05T10:39:41;10.95;;;7.15;;
59930;SDS011;45790;51.538;6.736;2022-12-05T10:44:57;10.63;;;7.72;;
59930;SDS011;45790;51.538;6.736;2022-12-05T10:47:26;11.32;;;7.22;;
59930;SDS011;45790;51.538;6.736;2022-12-05T10:49:53;11.05;;;7.25;;
59930;SDS011;45790;51.538;6.736;2022-12-05T10:52:20;10.48;;;6.88;;
59930;SDS011;45790;51.538;6.736;2022-12-05T10:54:46;10.80;;;7.18;;
59930;SDS011;45790;51.538;6.736;2022-12-05T10:57:20;10.95;;;7.25;;
59930;SDS011;45790;51.538;6.736;2022-12-05T10:59:50;11.32;;;7.25;;
59930;SDS011;45790;51.538;6.736;2022-12-05T11:02:24;10.25;;;7.00;;
59930;SDS011;45790;51.538;6.736;2022-12-05T11:04:54;9.18;;;6.32;;
59930;SDS011;45790;51.538;6.736;2022-12-05T11:10:18;10.48;;;6.93;;
59930;SDS011;45790;51.538;6.736;2022-12-05T11:12:45;9.60;;;6.60;;
59930;SDS011;45790;51.538;6.736;2022-12-05T11:17:39;9.90;;;6.80;;
59930;SDS011;45790;51.538;6.736;2022-12-05T11:20:32;10.93;;;6.95;;
59930;SDS011;45790;51.538;6.736;2022-12-05T11:22:51;10.73;;;6.85;;
59930;SDS011;45790;51.538;6.736;2022-12-05T11:27:52;10.30;;;6.82;;
59930;SDS011;45790;51.538;6.736;2022-12-05T11:30:23;11.20;;;7.63;;
59930;SDS011;45790;51.538;6.736;2022-12-05T11:33:09;9.70;;;6.45;;
59930;SDS011;45790;51.538;6.736;2022-12-05T11:35:36;12.52;;;6.93;;
59930;SDS011;45790;51.538;6.736;2022-12-05T11:38:02;9.70;;;6.68;;
59930;SDS011;45790;51.538;6.736;2022-12-05T11:43:31;10.82;;;7.07;;
59930;SDS011;45790;51.538;6.736;2022-12-05T11:52:07;10.93;;;7.13;;
59930;SDS011;45790;51.538;6.736;2022-12-05T11:54:53;9.90;;;6.90;;
59930;SDS011;45790;51.538;6.736;2022-12-05T11:59:58;11.05;;;7.13;;
59930;SDS011;45790;51.538;6.736;2022-12-05T12:05:17;10.32;;;6.38;;
59930;SDS011;45790;51.538;6.736;2022-12-05T12:08:15;10.20;;;7.00;;
59930;SDS011;45790;51.538;6.736;2022-12-05T12:11:57;9.70;;;6.13;;
59930;SDS011;45790;51.538;6.736;2022-12-05T12:27:40;9.68;;;6.63;;
59930;SDS011;45790;51.538;6.736;2022-12-05T12:30:14;8.95;;;6.03;;
59930;SDS011;45790;51.538;6.736;2022-12-05T12:35:21;9.02;;;6.70;;
59930;SDS011;45790;51.538;6.736;2022-12-05T12:40:34;10.32;;;6.05;;
59930;SDS011;45790;51.538;6.736;2022-12-05T12:51:51;10.15;;;6.60;;
59930;SDS011;45790;51.538;6.736;2022-12-05T12:56:53;8.35;;;5.55;;
59930;SDS011;45790;51.538;6.736;2022-12-05T13:04:53;8.40;;;5.78;;
59930;SDS011;45790;51.538;6.736;2022-12-05T13:07:38;8.90;;;6.10;;
59930;SDS011;45790;51.538;6.736;2022-12-05T13:10:13;9.43;;;5.75;;
59930;SDS011;45790;51.538;6.736;2022-12-05T13:12:46;8.27;;;5.75;;
59930;SDS011;45790;51.538;6.736;2022-12-05T13:15:14;8.52;;;5.75;;
59930;SDS011;45790;51.538;6.736;2022-12-05T13:17:41;7.32;;;5.22;;
59930;SDS011;45790;51.538;6.736;2022-12-05T13:20:18;8.45;;;5.68;;
59930;SDS011;45790;51.538;6.736;2022-12-05T13:22:45;8.90;;;5.80;;
59930;SDS011;45790;51.538;6.736;2022-12-05T13:25:14;8.50;;;5.90;;
59930;SDS011;45790;51.538;6.736;2022-12-05T13:27:51;8.63;;;5.45;;
59930;SDS011;45790;51.538;6.736;2022-12-05T13:30:17;7.72;;;5.45;;
59930;SDS011;45790;51.538;6.736;2022-12-05T13:32:44;8.98;;;5.63;;
59930;SDS011;45790;51.538;6.736;2022-12-05T13:35:18;7.82;;;5.72;;
59930;SDS011;45790;51.538;6.736;2022-12-05T13:38:04;7.68;;;5.43;;
59930;SDS011;45790;51.538;6.736;2022-12-05T13:40:49;8.30;;;5.22;;
59930;SDS011;45790;51.538;6.736;2022-12-05T13:43:39;7.28;;;5.25;;
59930;SDS011;45790;51.538;6.736;2022-12-05T13:46:07;8.45;;;5.53;;
59930;SDS011;45790;51.538;6.736;2022-12-05T13:48:36;8.32;;;5.30;;
59930;SDS011;45790;51.538;6.736;2022-12-05T13:53:31;8.57;;;5.35;;
59930;SDS011;45790;51.538;6.736;2022-12-05T14:09:02;6.68;;;4.88;;
59930;SDS011;45790;51.538;6.736;2022-12-05T14:17:23;8.05;;;5.63;;
59930;SDS011;45790;51.538;6.736;2022-12-05T14:22:32;7.82;;;5.15;;
59930;SDS011;45790;51.538;6.736;2022-12-05T14:25:29;9.70;;;5.80;;
59930;SDS011;45790;51.538;6.736;2022-12-05T14:28:01;7.07;;;4.97;;
59930;SDS011;45790;51.538;6.736;2022-12-05T14:33:30;8.00;;;5.72;;
59930;SDS011;45790;51.538;6.736;2022-12-05T14:35:56;6.68;;;4.85;;
59930;SDS011;45790;51.538;6.736;2022-12-05T14:38:30;7.43;;;5.10;;
59930;SDS011;45790;51.538;6.736;2022-12-05T14:41:22;8.82;;;6.05;;
59930;SDS011;45790;51.538;6.736;2022-12-05T14:43:55;10.10;;;5.30;;
59930;SDS011;45790;51.538;6.736;2022-12-05T14:46:23;9.55;;;5.88;;
59930;SDS011;45790;51.538;6.736;2022-12-05T14:48:50;7.80;;;5.57;;
59930;SDS011;45790;51.538;6.736;2022-12-05T14:54:02;8.25;;;5.75;;
59930;SDS011;45790;51.538;6.736;2022-12-05T14:56:30;7.68;;;5.38;;
59930;SDS011;45790;51.538;6.736;2022-12-05T14:59:03;8.18;;;5.40;;
59930;SDS011;45790;51.538;6.736;2022-12-05T15:01:33;8.55;;;6.13;;
59930;SDS011;45790;51.538;6.736;2022-12-05T15:06:44;9.32;;;5.68;;
59930;SDS011;45790;51.538;6.736;2022-12-05T15:11:55;8.60;;;5.35;;
59930;SDS011;45790;51.538;6.736;2022-12-05T15:14:22;9.30;;;5.70;;
59930;SDS011;45790;51.538;6.736;2022-12-05T15:16:51;8.32;;;5.88;;
59930;SDS011;45790;51.538;6.736;2022-12-05T15:19:20;8.13;;;5.65;;
59930;SDS011;45790;51.538;6.736;2022-12-05T15:21:50;8.65;;;5.60;;
59930;SDS011;45790;51.538;6.736;2022-12-05T15:24:18;7.13;;;5.30;;
59930;SDS011;45790;51.538;6.736;2022-12-05T15:26:44;8.43;;;5.80;;
59930;SDS011;45790;51.538;6.736;2022-12-05T15:31:49;8.43;;;5.80;;
59930;SDS011;45790;51.538;6.736;2022-12-05T15:34:22;8.60;;;5.38;;
59930;SDS011;45790;51.538;6.736;2022-12-05T15:36:49;9.27;;;5.80;;
59930;SDS011;45790;51.538;6.736;2022-12-05T15:39:20;9.27;;;5.82;;
59930;SDS011;45790;51.538;6.736;2022-12-05T15:41:49;9.27;;;6.07;;
59930;SDS011;45790;51.538;6.736;2022-12-05T15:44:16;8.52;;;5.57;;
59930;SDS011;45790;51.538;6.736;2022-12-05T15:46:43;8.00;;;5.45;;
59930;SDS011;45790;51.538;6.736;2022-12-05T15:49:16;9.02;;;5.85;;
59930;SDS011;45790;51.538;6.736;2022-12-05T15:51:45;8.07;;;5.20;;
59930;SDS011;45790;51.538;6.736;2022-12-05T15:54:13;7.82;;;5.07;;
59930;SDS011;45790;51.538;6.736;2022-12-05T15:56:47;6.93;;;5.30;;
59930;SDS011;45790;51.538;6.736;2022-12-05T15:59:16;7.80;;;5.43;;
59930;SDS011;45790;51.538;6.736;2022-12-05T16:01:45;7.60;;;5.18;;
59930;SDS011;45790;51.538;6.736;2022-12-05T16:04:29;7.95;;;5.60;;
59930;SDS011;45790;51.538;6.736;2022-12-05T16:07:01;8.18;;;6.07;;
59930;SDS011;45790;51.538;6.736;2022-12-05T16:09:30;7.00;;;5.17;;
59930;SDS011;45790;51.538;6.736;2022-12-05T16:11:57;8.02;;;5.43;;
59930;SDS011;45790;51.538;6.736;2022-12-05T16:14:24;8.25;;;5.28;;
59930;SDS011;45790;51.538;6.736;2022-12-05T16:16:56;7.68;;;5.50;;
59930;SDS011;45790;51.538;6.736;2022-12-05T16:19:24;8.32;;;5.18;;
59930;SDS011;45790;51.538;6.736;2022-12-05T16:22:06;7.78;;;5.00;;
59930;SDS011;45790;51.538;6.736;2022-12-05T16:24:40;8.73;;;5.35;;
59930;SDS011;45790;51.538;6.736;2022-12-05T16:27:14;7.72;;;5.15;;
59930;SDS011;45790;51.538;6.736;2022-12-05T16:32:30;8.68;;;5.50;;
59930;SDS011;45790;51.538;6.736;2022-12-05T16:34:58;7.47;;;4.82;;
59930;SDS011;45790;51.538;6.736;2022-12-05T16:37:24;7.93;;;4.97;;
59930;SDS011;45790;51.538;6.736;2022-12-05T16:39:51;7.20;;;4.82;;
59930;SDS011;45790;51.538;6.736;2022-12-05T16:42:24;6.18;;;5.05;;
59930;SDS011;45790;51.538;6.736;2022-12-05T16:44:59;8.05;;;5.32;;
59930;SDS011;45790;51.538;6.736;2022-12-05T16:50:21;7.47;;;4.70;;
59930;SDS011;45790;51.538;6.736;2022-12-05T16:52:49;6.55;;;5.10;;
59930;SDS011;45790;51.538;6.736;2022-12-05T16:55:15;6.82;;;4.70;;
59930;SDS011;45790;51.538;6.736;2022-12-05T16:57:41;7.03;;;5.13;;
59930;SDS011;45790;51.538;6.736;2022-12-05T17:00:11;8.50;;;5.53;;
59930;SDS011;45790;51.538;6.736;2022-12-05T17:02:38;6.63;;;5.03;;
59930;SDS011;45790;51.538;6.736;2022-12-05T17:05:05;7.20;;;4.80;;
59930;SDS011;45790;51.538;6.736;2022-12-05T17:07:37;8.55;;;5.25;;
59930;SDS011;45790;51.538;6.736;2022-12-05T17:10:02;8.77;;;6.05;;
59930;SDS011;45790;51.538;6.736;2022-12-05T17:12:28;7.85;;;5.13;;
59930;SDS011;45790;51.538;6.736;2022-12-05T17:14:54;8.88;;;5.50;;
59930;SDS011;45790;51.538;6.736;2022-12-05T17:17:19;8.85;;;5.68;;
59930;SDS011;45790;51.538;6.736;2022-12-05T17:19:45;9.13;;;5.88;;
59930;SDS011;45790;51.538;6.736;2022-12-05T17:22:11;9.05;;;5.70;;
59930;SDS011;45790;51.538;6.736;2022-12-05T17:24:38;10.05;;;6.00;;
59930;SDS011;45790;51.538;6.736;2022-12-05T17:27:12;9.13;;;5.80;;
59930;SDS011;45790;51.538;6.736;2022-12-05T17:29:38;7.35;;;5.22;;